メインページ
METAR-TAF:

METAR-TAF

空港 :

スルタン・イスマイル・プトラ空港

コタバル, マレーシア

緯度: 06-10N, 経度: 102-17E, 海抜: 5m

現時点の気象観測

当レポートは1時間0分前の12:00(UTC)に作成
の風 3kt
気温 29°C
湿度 84%
気圧 1008 hPa
視程10km以上
高度2000ftの雲はほとんどない

METAR: WMKC 201200Z 10003KT 9999 FEW020 29/26 Q1008

時間: 21:00 (13:00 UTC)

予報

当レポートは2時間0分前の11:00(UTC)に作成
予報は20日の 12時(UTC)から 21日の 12時(UTC)まで有効
北東の風 5kt
視程10km以上
高度2000ftの雲はほとんどない

TAF: WMKC 201100Z 2012/2112 04005KT 9999 FEW020

4,000以上の空港の気象観測と天気予報(METAR報とTAF報)

利用可能な観測所は地図上に黄色い丸と赤い丸で示す。

丸の上にカーソルを重ねると観測所名を参照できる。

次にクリックすると気象観測と天気予報を参照できる。

マップの切り替え:黒色「×」印の緑ボタンをクリックして拡大、「-」印の緑ボタンをクリックして縮小、緑色の三角印をクリックして隣りの地図に切り替え


METAR-TAF: